Terminal Aerodrome Forecast
Issued by NWS Lake Charles, LA

Home | Current Version | Previous Version | Text Only | Print | Product List | Glossary On
Versions: 1 2 3 4 5 6 7 8 9 10 11 12 13 14 15 16 17 18 19 20 21
000
FTUS44 KLCH 290520
TAFBPT
TAF
KBPT 290520Z 2906/3006 14014G20KT 5SM HZ BR VCSH OVC012
     FM290900 15016G22KT 4SM BR VCSH OVC009
     FM291400 15023G30KT P6SM VCSH OVC015
     FM291800 16025G32KT P6SM VCSH BKN015
     FM300000 16020G28KT 5SM BR VCSH OVC015 PROB30 3000/3006 3SM
      TSRA OVC012CB=

USA.gov is the U.S. government's official web portal to all federal, state and local government web resources and services.